sensor_id;sensor_type;location;lat;lon;timestamp;temperature;humidity
65584;DHT22;73032;43.592;1.458;2024-02-15T00:00:54;13.77;62.86
65584;DHT22;73032;43.592;1.458;2024-02-15T00:03:20;13.75;63.00
65584;DHT22;73032;43.592;1.458;2024-02-15T00:06:00;13.74;62.86
65584;DHT22;73032;43.592;1.458;2024-02-15T00:08:29;13.74;62.91
65584;DHT22;73032;43.592;1.458;2024-02-15T00:10:56;13.71;62.95
65584;DHT22;73032;43.592;1.458;2024-02-15T00:13:22;13.71;62.98
65584;DHT22;73032;43.592;1.458;2024-02-15T00:15:49;13.71;63.03
65584;DHT22;73032;43.592;1.458;2024-02-15T00:18:16;13.68;63.05
65584;DHT22;73032;43.592;1.458;2024-02-15T00:20:43;13.68;63.15
65584;DHT22;73032;43.592;1.458;2024-02-15T00:23:11;13.67;63.16
65584;DHT22;73032;43.592;1.458;2024-02-15T00:25:38;13.65;63.31
65584;DHT22;73032;43.592;1.458;2024-02-15T00:28:05;13.64;63.34
65584;DHT22;73032;43.592;1.458;2024-02-15T00:30:31;13.61;63.47
65584;DHT22;73032;43.592;1.458;2024-02-15T00:32:58;13.59;63.64
65584;DHT22;73032;43.592;1.458;2024-02-15T00:35:26;13.59;63.69
65584;DHT22;73032;43.592;1.458;2024-02-15T00:37:54;13.59;63.89
65584;DHT22;73032;43.592;1.458;2024-02-15T00:40:21;13.57;63.87
65584;DHT22;73032;43.592;1.458;2024-02-15T00:42:48;13.57;64.10
65584;DHT22;73032;43.592;1.458;2024-02-15T00:45:14;13.53;64.17
65584;DHT22;73032;43.592;1.458;2024-02-15T00:47:41;13.54;64.29
65584;DHT22;73032;43.592;1.458;2024-02-15T00:50:09;13.48;64.32
65584;DHT22;73032;43.592;1.458;2024-02-15T00:52:36;13.48;64.53
65584;DHT22;73032;43.592;1.458;2024-02-15T00:55:03;13.44;64.67
65584;DHT22;73032;43.592;1.458;2024-02-15T00:57:30;13.43;64.71
65584;DHT22;73032;43.592;1.458;2024-02-15T00:59:57;13.40;64.84
65584;DHT22;73032;43.592;1.458;2024-02-15T01:02:23;13.35;64.95
65584;DHT22;73032;43.592;1.458;2024-02-15T01:04:51;13.35;65.05
65584;DHT22;73032;43.592;1.458;2024-02-15T01:07:18;13.34;65.33
65584;DHT22;73032;43.592;1.458;2024-02-15T01:09:44;13.30;65.33
65584;DHT22;73032;43.592;1.458;2024-02-15T01:12:11;13.31;65.37
65584;DHT22;73032;43.592;1.458;2024-02-15T01:14:38;13.27;65.46
65584;DHT22;73032;43.592;1.458;2024-02-15T01:17:05;13.27;65.55
65584;DHT22;73032;43.592;1.458;2024-02-15T01:19:32;13.25;65.62
65584;DHT22;73032;43.592;1.458;2024-02-15T01:21:59;13.25;65.91
65584;DHT22;73032;43.592;1.458;2024-02-15T01:24:26;13.24;65.90
65584;DHT22;73032;43.592;1.458;2024-02-15T01:26:53;13.24;66.00
65584;DHT22;73032;43.592;1.458;2024-02-15T01:29:20;13.21;66.13
65584;DHT22;73032;43.592;1.458;2024-02-15T01:31:47;13.21;66.18
65584;DHT22;73032;43.592;1.458;2024-02-15T01:34:13;13.20;66.22
65584;DHT22;73032;43.592;1.458;2024-02-15T01:36:41;13.20;66.30
65584;DHT22;73032;43.592;1.458;2024-02-15T01:39:07;13.18;66.60
65584;DHT22;73032;43.592;1.458;2024-02-15T01:41:35;13.15;66.66
65584;DHT22;73032;43.592;1.458;2024-02-15T01:44:02;13.15;66.70
65584;DHT22;73032;43.592;1.458;2024-02-15T01:46:28;13.13;66.95
65584;DHT22;73032;43.592;1.458;2024-02-15T01:48:56;13.10;67.21
65584;DHT22;73032;43.592;1.458;2024-02-15T01:51:24;13.08;67.25
65584;DHT22;73032;43.592;1.458;2024-02-15T01:53:52;13.06;67.43
65584;DHT22;73032;43.592;1.458;2024-02-15T01:56:20;13.06;67.55
65584;DHT22;73032;43.592;1.458;2024-02-15T01:58:49;13.07;67.74
65584;DHT22;73032;43.592;1.458;2024-02-15T02:01:16;13.06;68.00
65584;DHT22;73032;43.592;1.458;2024-02-15T02:03:43;13.07;67.91
65584;DHT22;73032;43.592;1.458;2024-02-15T02:06:10;13.07;67.99
65584;DHT22;73032;43.592;1.458;2024-02-15T02:08:38;13.06;68.03
65584;DHT22;73032;43.592;1.458;2024-02-15T02:11:05;13.06;68.41
65584;DHT22;73032;43.592;1.458;2024-02-15T02:13:32;13.06;68.33
65584;DHT22;73032;43.592;1.458;2024-02-15T02:15:59;13.04;68.42
65584;DHT22;73032;43.592;1.458;2024-02-15T02:18:26;13.06;68.66
65584;DHT22;73032;43.592;1.458;2024-02-15T02:20:53;13.01;68.47
65584;DHT22;73032;43.592;1.458;2024-02-15T02:23:23;13.03;68.77
65584;DHT22;73032;43.592;1.458;2024-02-15T02:25:54;13.00;68.80
65584;DHT22;73032;43.592;1.458;2024-02-15T02:28:21;12.99;68.85
65584;DHT22;73032;43.592;1.458;2024-02-15T02:30:49;12.97;69.34
65584;DHT22;73032;43.592;1.458;2024-02-15T02:33:16;12.97;68.87
65584;DHT22;73032;43.592;1.458;2024-02-15T02:35:49;12.97;69.31
65584;DHT22;73032;43.592;1.458;2024-02-15T02:38:16;12.94;68.91
65584;DHT22;73032;43.592;1.458;2024-02-15T02:40:42;12.94;68.88
65584;DHT22;73032;43.592;1.458;2024-02-15T02:43:09;12.93;68.94
65584;DHT22;73032;43.592;1.458;2024-02-15T02:45:37;12.91;69.07
65584;DHT22;73032;43.592;1.458;2024-02-15T02:48:04;12.90;68.92
65584;DHT22;73032;43.592;1.458;2024-02-15T02:50:31;12.89;68.88
65584;DHT22;73032;43.592;1.458;2024-02-15T02:52:58;12.87;68.79
65584;DHT22;73032;43.592;1.458;2024-02-15T02:55:26;12.84;69.07
65584;DHT22;73032;43.592;1.458;2024-02-15T02:57:54;12.86;69.18
65584;DHT22;73032;43.592;1.458;2024-02-15T03:00:21;12.84;69.51
65584;DHT22;73032;43.592;1.458;2024-02-15T03:02:49;12.83;69.38
65584;DHT22;73032;43.592;1.458;2024-02-15T03:05:16;12.81;69.22
65584;DHT22;73032;43.592;1.458;2024-02-15T03:07:43;12.80;69.52
65584;DHT22;73032;43.592;1.458;2024-02-15T03:10:11;12.79;69.55
65584;DHT22;73032;43.592;1.458;2024-02-15T03:12:41;12.77;70.07
65584;DHT22;73032;43.592;1.458;2024-02-15T03:15:09;12.79;69.94
65584;DHT22;73032;43.592;1.458;2024-02-15T03:17:45;12.77;70.31
65584;DHT22;73032;43.592;1.458;2024-02-15T03:20:12;12.80;70.36
65584;DHT22;73032;43.592;1.458;2024-02-15T03:22:57;12.77;70.39
65584;DHT22;73032;43.592;1.458;2024-02-15T03:25:25;12.75;70.66
65584;DHT22;73032;43.592;1.458;2024-02-15T03:27:53;12.76;70.66
65584;DHT22;73032;43.592;1.458;2024-02-15T03:30:21;12.75;70.35
65584;DHT22;73032;43.592;1.458;2024-02-15T03:32:48;12.73;70.54
65584;DHT22;73032;43.592;1.458;2024-02-15T03:35:21;12.70;70.67
65584;DHT22;73032;43.592;1.458;2024-02-15T03:37:52;12.69;70.86
65584;DHT22;73032;43.592;1.458;2024-02-15T03:40:20;12.66;71.25
65584;DHT22;73032;43.592;1.458;2024-02-15T03:42:47;12.66;70.89
65584;DHT22;73032;43.592;1.458;2024-02-15T03:45:13;12.66;70.97
65584;DHT22;73032;43.592;1.458;2024-02-15T03:47:40;12.63;70.67
65584;DHT22;73032;43.592;1.458;2024-02-15T03:50:08;12.63;70.99
65584;DHT22;73032;43.592;1.458;2024-02-15T03:52:38;12.63;70.92
65584;DHT22;73032;43.592;1.458;2024-02-15T03:55:05;12.61;71.24
65584;DHT22;73032;43.592;1.458;2024-02-15T03:57:34;12.60;71.33
65584;DHT22;73032;43.592;1.458;2024-02-15T04:00:01;12.63;71.38
65584;DHT22;73032;43.592;1.458;2024-02-15T04:02:28;12.60;71.22
65584;DHT22;73032;43.592;1.458;2024-02-15T04:04:56;12.60;71.20
65584;DHT22;73032;43.592;1.458;2024-02-15T04:07:24;12.59;71.13
65584;DHT22;73032;43.592;1.458;2024-02-15T04:09:53;12.61;71.23
65584;DHT22;73032;43.592;1.458;2024-02-15T04:12:20;12.57;71.28
65584;DHT22;73032;43.592;1.458;2024-02-15T04:14:48;12.57;71.65
65584;DHT22;73032;43.592;1.458;2024-02-15T04:17:15;12.60;71.50
65584;DHT22;73032;43.592;1.458;2024-02-15T04:19:45;12.57;71.54
65584;DHT22;73032;43.592;1.458;2024-02-15T04:22:13;12.56;72.02
65584;DHT22;73032;43.592;1.458;2024-02-15T04:24:43;12.57;72.12
65584;DHT22;73032;43.592;1.458;2024-02-15T04:27:12;12.55;72.45
65584;DHT22;73032;43.592;1.458;2024-02-15T04:29:41;12.56;72.36
65584;DHT22;73032;43.592;1.458;2024-02-15T04:32:08;12.52;73.09
65584;DHT22;73032;43.592;1.458;2024-02-15T04:34:39;12.50;72.85
65584;DHT22;73032;43.592;1.458;2024-02-15T04:37:06;12.52;72.76
65584;DHT22;73032;43.592;1.458;2024-02-15T04:39:34;12.50;72.83
65584;DHT22;73032;43.592;1.458;2024-02-15T04:42:03;12.52;72.82
65584;DHT22;73032;43.592;1.458;2024-02-15T04:44:31;12.52;73.64
65584;DHT22;73032;43.592;1.458;2024-02-15T04:47:02;12.52;73.65
65584;DHT22;73032;43.592;1.458;2024-02-15T04:49:32;12.56;74.01
65584;DHT22;73032;43.592;1.458;2024-02-15T04:51:59;12.55;73.34
65584;DHT22;73032;43.592;1.458;2024-02-15T04:54:29;12.55;74.04
65584;DHT22;73032;43.592;1.458;2024-02-15T04:56:55;12.52;73.47
65584;DHT22;73032;43.592;1.458;2024-02-15T04:59:23;12.52;73.46
65584;DHT22;73032;43.592;1.458;2024-02-15T05:01:53;12.53;73.58
65584;DHT22;73032;43.592;1.458;2024-02-15T05:04:20;12.55;73.73
65584;DHT22;73032;43.592;1.458;2024-02-15T05:06:46;12.53;73.93
65584;DHT22;73032;43.592;1.458;2024-02-15T05:09:14;12.56;74.97
65584;DHT22;73032;43.592;1.458;2024-02-15T05:11:40;12.57;74.28
65584;DHT22;73032;43.592;1.458;2024-02-15T05:14:14;12.56;74.49
65584;DHT22;73032;43.592;1.458;2024-02-15T05:16:46;12.56;74.47
65584;DHT22;73032;43.592;1.458;2024-02-15T05:19:17;12.55;75.27
65584;DHT22;73032;43.592;1.458;2024-02-15T05:21:45;12.56;75.10
65584;DHT22;73032;43.592;1.458;2024-02-15T05:24:13;12.53;75.03
65584;DHT22;73032;43.592;1.458;2024-02-15T05:26:44;12.53;75.12
65584;DHT22;73032;43.592;1.458;2024-02-15T05:29:13;12.50;74.89
65584;DHT22;73032;43.592;1.458;2024-02-15T05:31:40;12.46;74.98
65584;DHT22;73032;43.592;1.458;2024-02-15T05:34:10;12.46;74.80
65584;DHT22;73032;43.592;1.458;2024-02-15T05:36:40;12.46;75.15
65584;DHT22;73032;43.592;1.458;2024-02-15T05:39:07;12.46;75.65
65584;DHT22;73032;43.592;1.458;2024-02-15T05:41:34;12.43;75.46
65584;DHT22;73032;43.592;1.458;2024-02-15T05:44:02;12.42;75.44
65584;DHT22;73032;43.592;1.458;2024-02-15T05:46:33;12.43;75.57
65584;DHT22;73032;43.592;1.458;2024-02-15T05:49:03;12.42;75.52
65584;DHT22;73032;43.592;1.458;2024-02-15T05:51:31;12.42;75.55
65584;DHT22;73032;43.592;1.458;2024-02-15T05:54:00;12.42;75.80
65584;DHT22;73032;43.592;1.458;2024-02-15T05:56:27;12.40;75.68
65584;DHT22;73032;43.592;1.458;2024-02-15T05:58:55;12.45;75.74
65584;DHT22;73032;43.592;1.458;2024-02-15T06:01:23;12.46;75.83
65584;DHT22;73032;43.592;1.458;2024-02-15T06:03:50;12.49;75.90
65584;DHT22;73032;43.592;1.458;2024-02-15T06:06:25;12.53;75.74
65584;DHT22;73032;43.592;1.458;2024-02-15T06:08:53;12.56;75.97
65584;DHT22;73032;43.592;1.458;2024-02-15T06:11:21;12.55;75.71
65584;DHT22;73032;43.592;1.458;2024-02-15T06:13:47;12.59;75.75
65584;DHT22;73032;43.592;1.458;2024-02-15T06:16:14;12.57;75.61
65584;DHT22;73032;43.592;1.458;2024-02-15T06:18:41;12.59;75.66
65584;DHT22;73032;43.592;1.458;2024-02-15T06:21:08;12.59;75.90
65584;DHT22;73032;43.592;1.458;2024-02-15T06:23:35;12.55;75.94
65584;DHT22;73032;43.592;1.458;2024-02-15T06:26:03;12.53;76.11
65584;DHT22;73032;43.592;1.458;2024-02-15T06:28:30;12.53;76.14
65584;DHT22;73032;43.592;1.458;2024-02-15T06:31:15;12.53;76.11
65584;DHT22;73032;43.592;1.458;2024-02-15T06:34:00;12.50;76.64
65584;DHT22;73032;43.592;1.458;2024-02-15T06:36:52;12.50;76.52
65584;DHT22;73032;43.592;1.458;2024-02-15T06:39:37;12.52;76.41
65584;DHT22;73032;43.592;1.458;2024-02-15T06:42:06;12.50;76.24
65584;DHT22;73032;43.592;1.458;2024-02-15T06:44:33;12.55;76.30
65584;DHT22;73032;43.592;1.458;2024-02-15T06:47:00;12.55;76.22
65584;DHT22;73032;43.592;1.458;2024-02-15T06:49:27;12.57;76.19
65584;DHT22;73032;43.592;1.458;2024-02-15T06:51:54;12.59;76.37
65584;DHT22;73032;43.592;1.458;2024-02-15T06:54:21;12.61;76.38
65584;DHT22;73032;43.592;1.458;2024-02-15T06:56:49;12.64;76.30
65584;DHT22;73032;43.592;1.458;2024-02-15T06:59:19;12.69;76.94
65584;DHT22;73032;43.592;1.458;2024-02-15T07:01:47;12.70;77.14
65584;DHT22;73032;43.592;1.458;2024-02-15T07:04:13;12.72;76.90
65584;DHT22;73032;43.592;1.458;2024-02-15T07:06:40;12.72;76.86
65584;DHT22;73032;43.592;1.458;2024-02-15T07:09:11;12.72;77.24
65584;DHT22;73032;43.592;1.458;2024-02-15T07:11:38;12.70;77.79
65584;DHT22;73032;43.592;1.458;2024-02-15T07:14:05;12.70;77.09
65584;DHT22;73032;43.592;1.458;2024-02-15T07:16:34;12.69;77.83
65584;DHT22;73032;43.592;1.458;2024-02-15T07:19:01;12.70;77.42
65584;DHT22;73032;43.592;1.458;2024-02-15T07:21:28;12.70;77.42
65584;DHT22;73032;43.592;1.458;2024-02-15T07:23:55;12.72;77.60
65584;DHT22;73032;43.592;1.458;2024-02-15T07:26:25;12.72;78.11
65584;DHT22;73032;43.592;1.458;2024-02-15T07:28:55;12.76;78.69
65584;DHT22;73032;43.592;1.458;2024-02-15T07:31:27;12.76;78.07
65584;DHT22;73032;43.592;1.458;2024-02-15T07:33:56;12.80;77.92
65584;DHT22;73032;43.592;1.458;2024-02-15T07:36:23;12.84;78.19
65584;DHT22;73032;43.592;1.458;2024-02-15T07:38:51;12.87;78.23
65584;DHT22;73032;43.592;1.458;2024-02-15T07:41:18;12.94;78.06
65584;DHT22;73032;43.592;1.458;2024-02-15T07:43:51;12.96;77.36
65584;DHT22;73032;43.592;1.458;2024-02-15T07:46:19;13.01;77.63
65584;DHT22;73032;43.592;1.458;2024-02-15T07:48:46;13.06;77.80
65584;DHT22;73032;43.592;1.458;2024-02-15T07:51:17;13.13;77.50
65584;DHT22;73032;43.592;1.458;2024-02-15T07:53:48;13.20;77.31
65584;DHT22;73032;43.592;1.458;2024-02-15T07:56:16;13.24;77.72
65584;DHT22;73032;43.592;1.458;2024-02-15T07:58:45;13.33;77.54
65584;DHT22;73032;43.592;1.458;2024-02-15T08:01:19;13.43;77.56
65584;DHT22;73032;43.592;1.458;2024-02-15T08:03:52;13.53;77.41
65584;DHT22;73032;43.592;1.458;2024-02-15T08:06:22;13.59;77.40
65584;DHT22;73032;43.592;1.458;2024-02-15T08:08:52;13.69;77.47
65584;DHT22;73032;43.592;1.458;2024-02-15T08:11:22;13.75;77.31
65584;DHT22;73032;43.592;1.458;2024-02-15T08:13:53;13.82;77.16
65584;DHT22;73032;43.592;1.458;2024-02-15T08:16:26;13.88;77.00
65584;DHT22;73032;43.592;1.458;2024-02-15T08:18:54;13.94;76.85
65584;DHT22;73032;43.592;1.458;2024-02-15T08:21:30;13.99;76.70
65584;DHT22;73032;43.592;1.458;2024-02-15T08:24:00;14.08;76.63
65584;DHT22;73032;43.592;1.458;2024-02-15T08:26:39;14.13;76.57
65584;DHT22;73032;43.592;1.458;2024-02-15T08:29:06;14.18;76.48
65584;DHT22;73032;43.592;1.458;2024-02-15T08:31:33;14.22;76.29
65584;DHT22;73032;43.592;1.458;2024-02-15T08:34:03;14.29;76.27
65584;DHT22;73032;43.592;1.458;2024-02-15T08:36:33;14.32;76.28
65584;DHT22;73032;43.592;1.458;2024-02-15T08:39:00;14.37;76.14
65584;DHT22;73032;43.592;1.458;2024-02-15T08:41:27;14.40;76.03
65584;DHT22;73032;43.592;1.458;2024-02-15T08:43:55;14.47;75.90
65584;DHT22;73032;43.592;1.458;2024-02-15T08:46:25;14.50;75.78
65584;DHT22;73032;43.592;1.458;2024-02-15T08:48:53;14.53;75.74
65584;DHT22;73032;43.592;1.458;2024-02-15T08:51:20;14.59;75.70
65584;DHT22;73032;43.592;1.458;2024-02-15T08:53:50;14.62;75.56
65584;DHT22;73032;43.592;1.458;2024-02-15T08:56:20;14.70;75.34
65584;DHT22;73032;43.592;1.458;2024-02-15T08:58:47;14.84;75.17
65584;DHT22;73032;43.592;1.458;2024-02-15T09:01:14;14.97;75.03
65584;DHT22;73032;43.592;1.458;2024-02-15T09:03:41;15.15;74.75
65584;DHT22;73032;43.592;1.458;2024-02-15T09:06:08;15.38;74.44
65584;DHT22;73032;43.592;1.458;2024-02-15T09:08:35;15.59;74.02
65584;DHT22;73032;43.592;1.458;2024-02-15T09:11:02;15.85;73.69
65584;DHT22;73032;43.592;1.458;2024-02-15T09:13:31;16.29;72.88
65584;DHT22;73032;43.592;1.458;2024-02-15T09:16:00;16.61;72.39
65584;DHT22;73032;43.592;1.458;2024-02-15T09:18:27;17.14;71.82
65584;DHT22;73032;43.592;1.458;2024-02-15T09:20:54;17.59;70.93
65584;DHT22;73032;43.592;1.458;2024-02-15T09:23:22;18.05;69.88
65584;DHT22;73032;43.592;1.458;2024-02-15T09:25:50;18.34;68.90
65584;DHT22;73032;43.592;1.458;2024-02-15T09:28:19;18.72;68.35
65584;DHT22;73032;43.592;1.458;2024-02-15T09:30:49;18.98;67.82
65584;DHT22;73032;43.592;1.458;2024-02-15T09:33:21;19.12;67.37
65584;DHT22;73032;43.592;1.458;2024-02-15T09:35:48;19.48;66.69
65584;DHT22;73032;43.592;1.458;2024-02-15T09:38:15;19.83;66.06
65584;DHT22;73032;43.592;1.458;2024-02-15T09:40:48;19.99;65.53
65584;DHT22;73032;43.592;1.458;2024-02-15T09:43:16;20.31;64.75
65584;DHT22;73032;43.592;1.458;2024-02-15T09:45:43;20.53;64.54
65584;DHT22;73032;43.592;1.458;2024-02-15T09:48:10;20.67;63.53
65584;DHT22;73032;43.592;1.458;2024-02-15T09:50:41;20.83;63.57
65584;DHT22;73032;43.592;1.458;2024-02-15T09:53:09;20.95;63.26
65584;DHT22;73032;43.592;1.458;2024-02-15T09:55:36;20.92;63.26
65584;DHT22;73032;43.592;1.458;2024-02-15T09:58:05;21.24;62.68
65584;DHT22;73032;43.592;1.458;2024-02-15T10:00:32;21.42;62.51
65584;DHT22;73032;43.592;1.458;2024-02-15T10:03:05;22.09;61.45
65584;DHT22;73032;43.592;1.458;2024-02-15T10:05:32;22.44;60.75
65584;DHT22;73032;43.592;1.458;2024-02-15T10:08:00;23.07;59.82
65584;DHT22;73032;43.592;1.458;2024-02-15T10:10:28;23.73;59.01
65584;DHT22;73032;43.592;1.458;2024-02-15T10:12:55;24.37;57.40
65584;DHT22;73032;43.592;1.458;2024-02-15T10:15:38;25.07;55.77
65584;DHT22;73032;43.592;1.458;2024-02-15T10:18:06;25.65;54.76
65584;DHT22;73032;43.592;1.458;2024-02-15T10:20:36;26.17;53.85
65584;DHT22;73032;43.592;1.458;2024-02-15T10:25:36;27.16;51.70
65584;DHT22;73032;43.592;1.458;2024-02-15T10:28:11;27.56;51.25
65584;DHT22;73032;43.592;1.458;2024-02-15T10:30:39;27.96;50.76
65584;DHT22;73032;43.592;1.458;2024-02-15T10:33:10;28.06;49.12
65584;DHT22;73032;43.592;1.458;2024-02-15T10:35:45;27.50;49.28
65584;DHT22;73032;43.592;1.458;2024-02-15T10:38:12;27.47;50.21
65584;DHT22;73032;43.592;1.458;2024-02-15T10:40:46;26.96;51.36
65584;DHT22;73032;43.592;1.458;2024-02-15T10:43:15;26.54;51.86
65584;DHT22;73032;43.592;1.458;2024-02-15T10:45:44;25.86;52.25
65584;DHT22;73032;43.592;1.458;2024-02-15T10:48:11;25.33;52.71
65584;DHT22;73032;43.592;1.458;2024-02-15T10:50:42;24.95;53.96
65584;DHT22;73032;43.592;1.458;2024-02-15T10:53:28;24.61;54.28
65584;DHT22;73032;43.592;1.458;2024-02-15T10:58:33;24.54;54.39
65584;DHT22;73032;43.592;1.458;2024-02-15T11:01:06;24.75;54.59
65584;DHT22;73032;43.592;1.458;2024-02-15T11:03:47;24.50;53.05
65584;DHT22;73032;43.592;1.458;2024-02-15T11:06:17;24.26;53.78
65584;DHT22;73032;43.592;1.458;2024-02-15T11:08:46;24.06;54.26
65584;DHT22;73032;43.592;1.458;2024-02-15T11:11:13;23.65;55.18
65584;DHT22;73032;43.592;1.458;2024-02-15T11:13:41;23.69;54.78
65584;DHT22;73032;43.592;1.458;2024-02-15T11:16:41;23.73;55.13
65584;DHT22;73032;43.592;1.458;2024-02-15T11:19:08;23.46;55.26
65584;DHT22;73032;43.592;1.458;2024-02-15T11:21:56;23.08;54.54
65584;DHT22;73032;43.592;1.458;2024-02-15T11:24:27;22.78;55.43
65584;DHT22;73032;43.592;1.458;2024-02-15T11:26:59;22.48;56.33
65584;DHT22;73032;43.592;1.458;2024-02-15T11:32:47;22.07;58.22
65584;DHT22;73032;43.592;1.458;2024-02-15T11:35:24;22.33;57.44
65584;DHT22;73032;43.592;1.458;2024-02-15T11:37:55;22.57;56.93
65584;DHT22;73032;43.592;1.458;2024-02-15T11:40:27;22.92;56.65
65584;DHT22;73032;43.592;1.458;2024-02-15T11:43:00;23.26;55.38
65584;DHT22;73032;43.592;1.458;2024-02-15T11:45:28;23.41;54.73
65584;DHT22;73032;43.592;1.458;2024-02-15T11:48:14;24.12;54.42
65584;DHT22;73032;43.592;1.458;2024-02-15T11:50:41;24.18;53.36
65584;DHT22;73032;43.592;1.458;2024-02-15T11:53:09;24.18;52.38
65584;DHT22;73032;43.592;1.458;2024-02-15T11:55:39;24.47;53.15
65584;DHT22;73032;43.592;1.458;2024-02-15T11:58:08;24.72;52.25
65584;DHT22;73032;43.592;1.458;2024-02-15T12:00:36;25.01;52.25
65584;DHT22;73032;43.592;1.458;2024-02-15T12:03:22;25.32;51.05
65584;DHT22;73032;43.592;1.458;2024-02-15T12:06:27;25.36;51.05
65584;DHT22;73032;43.592;1.458;2024-02-15T12:09:17;25.01;51.31
65584;DHT22;73032;43.592;1.458;2024-02-15T12:12:02;24.60;51.42
65584;DHT22;73032;43.592;1.458;2024-02-15T12:14:48;24.53;51.90
65584;DHT22;73032;43.592;1.458;2024-02-15T12:17:34;24.14;51.80
65584;DHT22;73032;43.592;1.458;2024-02-15T12:20:19;23.82;53.53
65584;DHT22;73032;43.592;1.458;2024-02-15T12:22:52;23.43;53.66
65584;DHT22;73032;43.592;1.458;2024-02-15T12:25:20;23.07;53.42
65584;DHT22;73032;43.592;1.458;2024-02-15T12:27:56;22.84;55.00
65584;DHT22;73032;43.592;1.458;2024-02-15T12:30:26;22.58;55.12
65584;DHT22;73032;43.592;1.458;2024-02-15T12:33:11;22.24;54.95
65584;DHT22;73032;43.592;1.458;2024-02-15T12:35:40;22.06;56.05
65584;DHT22;73032;43.592;1.458;2024-02-15T12:38:12;21.86;56.42
65584;DHT22;73032;43.592;1.458;2024-02-15T12:40:42;21.70;56.95
65584;DHT22;73032;43.592;1.458;2024-02-15T12:43:15;21.62;57.26
65584;DHT22;73032;43.592;1.458;2024-02-15T12:45:42;21.49;57.34
65584;DHT22;73032;43.592;1.458;2024-02-15T12:48:09;21.34;57.47
65584;DHT22;73032;43.592;1.458;2024-02-15T12:50:38;21.26;57.34
65584;DHT22;73032;43.592;1.458;2024-02-15T12:53:05;21.15;57.58
65584;DHT22;73032;43.592;1.458;2024-02-15T12:55:36;21.15;57.82
65584;DHT22;73032;43.592;1.458;2024-02-15T12:58:06;21.15;57.78
65584;DHT22;73032;43.592;1.458;2024-02-15T13:00:36;21.45;57.68
65584;DHT22;73032;43.592;1.458;2024-02-15T13:03:08;21.56;57.43
65584;DHT22;73032;43.592;1.458;2024-02-15T13:05:39;21.90;56.88
65584;DHT22;73032;43.592;1.458;2024-02-15T13:08:07;22.04;56.37
65584;DHT22;73032;43.592;1.458;2024-02-15T13:10:41;22.39;56.23
65584;DHT22;73032;43.592;1.458;2024-02-15T13:13:08;22.84;55.53
65584;DHT22;73032;43.592;1.458;2024-02-15T13:15:36;23.82;54.98
65584;DHT22;73032;43.592;1.458;2024-02-15T13:18:04;24.38;53.93
65584;DHT22;73032;43.592;1.458;2024-02-15T13:20:32;24.50;51.96
65584;DHT22;73032;43.592;1.458;2024-02-15T13:23:01;24.95;52.49
65584;DHT22;73032;43.592;1.458;2024-02-15T13:25:49;25.16;52.29
65584;DHT22;73032;43.592;1.458;2024-02-15T13:28:16;25.04;51.54
65584;DHT22;73032;43.592;1.458;2024-02-15T13:30:45;25.18;51.47
65584;DHT22;73032;43.592;1.458;2024-02-15T13:33:16;25.22;50.79
65584;DHT22;73032;43.592;1.458;2024-02-15T13:35:44;24.99;51.12
65584;DHT22;73032;43.592;1.458;2024-02-15T13:38:11;24.69;51.47
65584;DHT22;73032;43.592;1.458;2024-02-15T13:40:42;24.27;52.20
65584;DHT22;73032;43.592;1.458;2024-02-15T13:43:11;23.83;52.72
65584;DHT22;73032;43.592;1.458;2024-02-15T13:45:41;23.38;53.31
65584;DHT22;73032;43.592;1.458;2024-02-15T13:48:09;23.05;53.67
65584;DHT22;73032;43.592;1.458;2024-02-15T13:50:37;22.81;54.51
65584;DHT22;73032;43.592;1.458;2024-02-15T13:53:06;22.54;55.10
65584;DHT22;73032;43.592;1.458;2024-02-15T13:55:33;22.29;55.05
65584;DHT22;73032;43.592;1.458;2024-02-15T13:58:01;22.17;55.49
65584;DHT22;73032;43.592;1.458;2024-02-15T14:00:30;22.09;55.87
65584;DHT22;73032;43.592;1.458;2024-02-15T14:03:01;21.99;56.15
65584;DHT22;73032;43.592;1.458;2024-02-15T14:05:30;22.02;56.16
65584;DHT22;73032;43.592;1.458;2024-02-15T14:07:59;21.88;56.02
65584;DHT22;73032;43.592;1.458;2024-02-15T14:10:29;21.65;56.59
65584;DHT22;73032;43.592;1.458;2024-02-15T14:12:56;21.41;56.78
65584;DHT22;73032;43.592;1.458;2024-02-15T14:15:27;21.22;57.09
65584;DHT22;73032;43.592;1.458;2024-02-15T14:17:54;21.16;57.49
65584;DHT22;73032;43.592;1.458;2024-02-15T14:20:23;21.19;57.76
65584;DHT22;73032;43.592;1.458;2024-02-15T14:22:51;21.01;57.72
65584;DHT22;73032;43.592;1.458;2024-02-15T14:25:25;20.84;57.97
65584;DHT22;73032;43.592;1.458;2024-02-15T14:27:55;20.67;58.21
65584;DHT22;73032;43.592;1.458;2024-02-15T14:30:24;20.50;58.57
65584;DHT22;73032;43.592;1.458;2024-02-15T14:33:10;20.33;59.03
65584;DHT22;73032;43.592;1.458;2024-02-15T14:35:45;20.29;59.11
65584;DHT22;73032;43.592;1.458;2024-02-15T14:38:12;20.29;59.24
65584;DHT22;73032;43.592;1.458;2024-02-15T14:40:42;20.36;59.36
65584;DHT22;73032;43.592;1.458;2024-02-15T14:43:21;20.39;59.30
65584;DHT22;73032;43.592;1.458;2024-02-15T14:45:52;20.40;59.12
65584;DHT22;73032;43.592;1.458;2024-02-15T14:48:20;20.33;59.10
65584;DHT22;73032;43.592;1.458;2024-02-15T14:50:48;20.27;59.25
65584;DHT22;73032;43.592;1.458;2024-02-15T14:53:18;20.14;59.37
65584;DHT22;73032;43.592;1.458;2024-02-15T14:55:45;20.03;59.45
65584;DHT22;73032;43.592;1.458;2024-02-15T14:58:16;19.90;59.79
65584;DHT22;73032;43.592;1.458;2024-02-15T15:00:45;19.79;60.05
65584;DHT22;73032;43.592;1.458;2024-02-15T15:03:13;19.70;60.22
65584;DHT22;73032;43.592;1.458;2024-02-15T15:05:41;19.70;60.41
65584;DHT22;73032;43.592;1.458;2024-02-15T15:08:27;19.72;60.39
65584;DHT22;73032;43.592;1.458;2024-02-15T15:11:13;18.54;88.28
65584;DHT22;73032;43.592;1.458;2024-02-15T15:13:59;16.97;77.65
65584;DHT22;73032;43.592;1.458;2024-02-15T15:16:25;15.72;88.34
65584;DHT22;73032;43.592;1.458;2024-02-15T15:18:55;15.28;86.67
65584;DHT22;73032;43.592;1.458;2024-02-15T15:21:23;15.10;85.88
65584;DHT22;73032;43.592;1.458;2024-02-15T15:23:50;14.93;84.24
65584;DHT22;73032;43.592;1.458;2024-02-15T15:26:20;14.81;84.62
65584;DHT22;73032;43.592;1.458;2024-02-15T15:28:48;14.83;85.48
65584;DHT22;73032;43.592;1.458;2024-02-15T15:31:15;14.83;83.01
65584;DHT22;73032;43.592;1.458;2024-02-15T15:33:42;14.84;83.36
65584;DHT22;73032;43.592;1.458;2024-02-15T15:36:09;14.98;83.70
65584;DHT22;73032;43.592;1.458;2024-02-15T15:38:39;15.01;84.00
65584;DHT22;73032;43.592;1.458;2024-02-15T15:41:07;15.10;82.87
65584;DHT22;73032;43.592;1.458;2024-02-15T15:43:35;15.12;81.31
65584;DHT22;73032;43.592;1.458;2024-02-15T15:46:03;15.15;83.29
65584;DHT22;73032;43.592;1.458;2024-02-15T15:48:30;15.15;83.15
65584;DHT22;73032;43.592;1.458;2024-02-15T15:51:00;15.07;82.28
65584;DHT22;73032;43.592;1.458;2024-02-15T15:53:31;15.00;82.25